Time;durP1;ratioP1;P1;durP2;ratioP2;P2;SDS_P1;SDS_P2;PMS_P1;PMS_P2;Temp;Humidity;BMP_temperature;BMP_pressure;BME280_temperature;BME280_humidity;BME280_pressure;Samples;Min_cycle;Max_cycle;Signal;HPM_P1;HPM_P2
2022/04/05 00:02:24;;;;;;;14.77;8.87;;;2.70;99.90;;;;;;5034644;28;20313;-82
2022/04/05 00:04:50;;;;;;;20.07;10.43;;;2.60;99.90;;;;;;5052622;28;20225;-81
2022/04/05 00:07:16;;;;;;;14.60;9.60;;;2.60;99.90;;;;;;5038190;28;20284;-84
2022/04/05 00:09:42;;;;;;;17.73;11.77;;;2.80;99.90;;;;;;5056313;28;20183;-81
2022/04/05 00:12:08;;;;;;;18.40;12.63;;;2.50;99.90;;;;;;5056425;28;20179;-82
2022/04/05 00:14:34;;;;;;;17.13;11.57;;;2.50;99.90;;;;;;5038180;28;20177;-82
2022/04/05 00:17:00;;;;;;;8.03;5.77;;;2.50;99.90;;;;;;5056395;28;20649;-82
2022/04/05 00:19:26;;;;;;;19.80;11.20;;;3.70;99.90;;;;;;5056104;28;20180;-82
2022/04/05 00:21:54;;;;;;;17.00;10.23;;;2.50;99.90;;;;;;5038352;28;20209;-82
2022/04/05 00:24:20;;;;;;;17.33;10.67;;;2.90;99.90;;;;;;5038036;28;20230;-83
2022/04/05 00:26:46;;;;;;;18.03;10.37;;;2.50;99.90;;;;;;5056092;28;20567;-82
2022/04/05 00:29:11;;;;;;;14.53;9.17;;;2.50;99.90;;;;;;5038416;28;20191;-82
2022/04/05 00:31:37;;;;;;;21.77;13.03;;;;;;;;;;5037904;28;20180;-81
2022/04/05 00:34:03;;;;;;;18.17;11.30;;;2.50;99.90;;;;;;5038266;28;20625;-82
2022/04/05 00:36:29;;;;;;;16.93;8.43;;;2.50;99.90;;;;;;5038128;28;20180;-82
2022/04/05 00:38:55;;;;;;;20.27;11.10;;;2.50;99.90;;;;;;5056137;28;20674;-82
2022/04/05 00:41:20;;;;;;;14.37;8.97;;;2.60;99.90;;;;;;5055553;28;20212;-84
2022/04/05 00:43:46;;;;;;;14.40;9.40;;;2.60;99.90;;;;;;5056022;28;20178;-81
2022/04/05 00:46:12;;;;;;;20.20;10.37;;;2.70;99.90;;;;;;5056760;28;20646;-81
2022/04/05 00:48:56;;;;;;;18.27;10.93;;;2.70;99.90;;;;;;5021610;28;20184;-81
2022/04/05 00:51:23;;;;;;;14.13;9.43;;;2.80;99.90;;;;;;5055723;28;20180;-83
2022/04/05 00:53:53;;;;;;;17.97;9.77;;;2.80;99.90;;;;;;5055886;28;20189;-82
2022/04/05 00:56:20;;;;;;;19.77;10.67;;;2.90;99.90;;;;;;5037934;28;20178;-82
2022/04/05 00:58:48;;;;;;;17.57;10.37;;;3.00;99.90;;;;;;5059386;28;20279;-82
2022/04/05 01:01:18;;;;;;;16.00;9.17;;;2.90;99.90;;;;;;5075637;28;20199;-82
2022/04/05 01:03:49;;;;;;;17.17;9.53;;;3.00;99.90;;;;;;5075268;28;20198;-82
2022/04/05 01:06:38;;;;;;;15.40;9.43;;;3.10;99.90;;;;;;5074548;28;20171;-82
2022/04/05 01:09:10;;;;;;;15.43;10.07;;;3.00;99.90;;;;;;5062011;28;20522;-81
2022/04/05 01:11:36;;;;;;;15.37;10.17;;;3.00;99.90;;;;;;5074050;28;20189;-82
2022/04/05 01:14:02;;;;;;;19.10;9.77;;;3.10;99.90;;;;;;5074525;28;20179;-82
2022/04/05 01:16:27;;;;;;;18.33;9.77;;;3.00;99.90;;;;;;5057045;28;20660;-82
2022/04/05 01:18:54;;;;;;;16.53;9.40;;;3.00;99.90;;;;;;5074032;28;20655;-81
2022/04/05 01:21:20;;;;;;;12.90;8.60;;;;;;;;;;5060067;28;20218;-81
2022/04/05 01:24:07;;;;;;;15.67;10.07;;;2.90;99.90;;;;;;5077743;28;20180;-82
2022/04/05 01:26:38;;;;;;;14.40;9.40;;;2.80;99.90;;;;;;5076775;28;20175;-82
2022/04/05 01:29:04;;;;;;;18.33;8.93;;;2.80;99.90;;;;;;5078960;28;20175;-80
2022/04/05 01:31:30;;;;;;;16.03;9.03;;;2.90;99.90;;;;;;5098797;28;20170;-85
2022/04/05 01:33:58;;;;;;;16.43;10.37;;;2.80;99.90;;;;;;5082158;28;20183;-82
2022/04/05 01:36:25;;;;;;;20.90;10.70;;;2.70;99.90;;;;;;5099305;28;20156;-82
2022/04/05 01:38:50;;;;;;;17.07;10.70;;;3.30;99.90;;;;;;5081656;28;20179;-83
2022/04/05 01:41:16;;;;;;;17.57;10.33;;;2.60;99.90;;;;;;5077763;28;20203;-82
2022/04/05 01:43:41;;;;;;;17.87;10.80;;;2.50;99.90;;;;;;5077476;28;20187;-82
2022/04/05 01:46:07;;;;;;;18.43;11.57;;;2.50;99.90;;;;;;5078723;28;20158;-82
2022/04/05 01:48:33;;;;;;;19.17;11.67;;;3.20;99.90;;;;;;5098000;28;20190;-85
2022/04/05 01:50:58;;;;;;;15.93;10.13;;;2.50;99.90;;;;;;5064593;28;20167;-82
2022/04/05 01:53:24;;;;;;;16.50;10.87;;;2.40;99.90;;;;;;5071226;28;20191;-82
2022/04/05 01:55:50;;;;;;;21.23;12.13;;;2.70;99.90;;;;;;5077670;28;20186;-81
2022/04/05 01:58:15;;;;;;;19.60;11.70;;;2.30;99.90;;;;;;5075664;28;20274;-82
2022/04/05 02:00:41;;;;;;;19.57;12.00;;;2.30;99.90;;;;;;5075487;28;20542;-82
2022/04/05 02:03:07;;;;;;;18.20;11.23;;;2.20;99.90;;;;;;5076152;28;20230;-82
2022/04/05 02:05:32;;;;;;;19.83;12.30;;;2.10;99.90;;;;;;5074260;28;20225;-84
2022/04/05 02:07:58;;;;;;;24.30;12.60;;;2.00;99.90;;;;;;5041475;28;20183;-82
2022/04/05 02:10:24;;;;;;;20.70;12.70;;;2.80;99.90;;;;;;5073990;28;20183;-82
2022/04/05 02:12:52;;;;;;;19.47;11.90;;;1.90;99.90;;;;;;5074337;28;20181;-81
2022/04/05 02:15:18;;;;;;;23.87;13.20;;;3.70;99.90;;;;;;5075470;28;20175;-81
2022/04/05 02:17:44;;;;;;;20.37;12.37;;;1.80;99.90;;;;;;5074348;28;20342;-82
2022/04/05 02:20:12;;;;;;;14.07;9.90;;;1.80;99.90;;;;;;5058056;28;20694;-82
2022/04/05 02:22:38;;;;;;;19.30;10.67;;;1.90;99.90;;;;;;5073724;28;20306;-82
2022/04/05 02:25:04;;;;;;;22.60;13.50;;;1.80;99.90;;;;;;5074455;28;20218;-81
2022/04/05 02:27:29;;;;;;;23.00;13.00;;;1.80;99.90;;;;;;5073101;28;20695;-81
2022/04/05 02:29:55;;;;;;;26.67;15.53;;;1.70;99.90;;;;;;5056120;28;20195;-81
2022/04/05 02:32:21;;;;;;;22.40;13.77;;;1.70;99.90;;;;;;5056585;28;20261;-82
2022/04/05 02:34:46;;;;;;;20.43;12.33;;;2.00;99.90;;;;;;5055776;28;20187;-82
2022/04/05 02:37:12;;;;;;;25.23;14.23;;;1.70;99.90;;;;;;5072708;28;20190;-82
2022/04/05 02:39:38;;;;;;;24.93;14.73;;;1.70;99.90;;;;;;5073205;28;20190;-84
2022/04/05 02:42:04;;;;;;;23.50;14.47;;;1.70;99.90;;;;;;5055822;28;20672;-82
2022/04/05 02:44:30;;;;;;;24.43;14.17;;;1.60;99.90;;;;;;5056194;28;20187;-82
2022/04/05 02:46:55;;;;;;;24.33;14.73;;;3.30;99.90;;;;;;5074011;28;20638;-82
2022/04/05 02:49:21;;;;;;;22.90;13.13;;;1.60;99.90;;;;;;5056219;28;20189;-82
2022/04/05 02:51:47;;;;;;;21.97;14.23;;;2.30;99.90;;;;;;5038916;28;20277;-82
2022/04/05 02:54:12;;;;;;;24.17;13.63;;;1.60;99.90;;;;;;5073686;28;20612;-81
2022/04/05 02:56:38;;;;;;;28.20;16.77;;;1.60;99.90;;;;;;5072281;28;20617;-82
2022/04/05 02:59:04;;;;;;;22.40;13.67;;;;;;;;;;5071662;28;20691;-82
2022/04/05 03:01:29;;;;;;;21.90;14.03;;;1.50;99.90;;;;;;5072130;28;20234;-83
2022/04/05 03:03:55;;;;;;;21.23;12.73;;;3.30;99.90;;;;;;5073125;28;20195;-83
2022/04/05 03:06:21;;;;;;;24.83;14.83;;;1.80;99.90;;;;;;5072219;28;20187;-82
2022/04/05 03:08:46;;;;;;;24.53;15.73;;;1.40;99.90;;;;;;5071751;28;20180;-82
2022/04/05 03:11:12;;;;;;;17.33;11.57;;;1.30;99.90;;;;;;5072291;28;20187;-81
2022/04/05 03:13:39;;;;;;;30.60;17.40;;;1.30;99.90;;;;;;5071898;28;20595;-82
2022/04/05 03:16:05;;;;;;;28.67;16.47;;;3.10;99.90;;;;;;5038913;28;20183;-82
2022/04/05 03:18:31;;;;;;;26.77;16.13;;;1.30;99.90;;;;;;5071928;28;20183;-82
2022/04/05 03:20:56;;;;;;;24.73;14.03;;;1.30;99.90;;;;;;5072897;28;20674;-82
2022/04/05 03:23:22;;;;;;;25.87;15.53;;;1.20;99.90;;;;;;5071748;28;20187;-82
2022/04/05 03:25:51;;;;;;;27.07;16.10;;;1.20;99.90;;;;;;5072630;28;20182;-83
2022/04/05 03:28:18;;;;;;;23.07;14.77;;;1.30;99.90;;;;;;5038871;28;20241;-82
2022/04/05 03:30:47;;;;;;;25.60;16.77;;;;;;;;;;5055373;28;20208;-81
2022/04/05 03:33:13;;;;;;;20.90;12.07;;;1.30;99.90;;;;;;5073418;28;20262;-81
2022/04/05 03:35:39;;;;;;;26.87;15.07;;;2.90;99.90;;;;;;5055165;28;20264;-81
2022/04/05 03:38:05;;;;;;;28.80;16.73;;;1.80;99.90;;;;;;5054791;28;20179;-81
2022/04/05 03:40:32;;;;;;;23.77;15.10;;;1.40;99.90;;;;;;5072520;28;20179;-82
2022/04/05 03:42:58;;;;;;;25.17;14.30;;;1.50;99.90;;;;;;5076097;28;20252;-82
2022/04/05 03:45:23;;;;;;;22.23;13.17;;;1.50;99.90;;;;;;5075933;28;20216;-82
2022/04/05 03:47:49;;;;;;;27.40;17.27;;;1.50;99.90;;;;;;5058928;28;20186;-83
2022/04/05 03:50:15;;;;;;;25.73;15.67;;;1.50;99.90;;;;;;5075802;28;20179;-81
2022/04/05 03:52:41;;;;;;;26.80;16.93;;;1.60;99.90;;;;;;5059038;28;20187;-82
2022/04/05 03:55:07;;;;;;;29.90;17.77;;;1.70;99.90;;;;;;5058471;28;20696;-82
2022/04/05 03:57:33;;;;;;;38.73;25.87;;;1.80;99.90;;;;;;5072842;28;20265;-82
2022/04/05 03:59:58;;;;;;;26.13;16.37;;;1.90;99.90;;;;;;5038838;28;20283;-82
2022/04/05 04:02:25;;;;;;;24.80;15.57;;;1.90;99.90;;;;;;5038960;28;20341;-82
2022/04/05 04:04:50;;;;;;;21.03;13.23;;;1.90;99.90;;;;;;5056401;28;20210;-83
2022/04/05 04:07:16;;;;;;;24.73;14.00;;;1.90;99.90;;;;;;5038865;28;20203;-82
2022/04/05 04:09:41;;;;;;;25.87;15.80;;;1.90;99.90;;;;;;5056615;28;20179;-82
2022/04/05 04:12:08;;;;;;;23.43;14.27;;;1.90;99.90;;;;;;5056109;28;20179;-82
2022/04/05 04:14:33;;;;;;;24.83;16.70;;;1.90;99.90;;;;;;5038945;28;20187;-82
2022/04/05 04:17:00;;;;;;;32.73;17.17;;;3.00;99.90;;;;;;5056094;28;20544;-82
2022/04/05 04:19:25;;;;;;;24.63;15.70;;;2.00;99.90;;;;;;5038438;28;20172;-82
2022/04/05 04:21:51;;;;;;;24.70;16.03;;;2.00;99.90;;;;;;5038346;28;20214;-81
2022/04/05 04:24:17;;;;;;;22.83;14.77;;;2.00;99.90;;;;;;5038225;28;20269;-81
2022/04/05 04:26:42;;;;;;;28.37;16.77;;;3.70;99.90;;;;;;5038036;28;20654;-82
2022/04/05 04:29:08;;;;;;;26.43;14.83;;;2.00;99.90;;;;;;5021375;28;20184;-81
2022/04/05 04:31:34;;;;;;;19.97;13.20;;;2.10;99.90;;;;;;5038195;28;20192;-82
2022/04/05 04:34:03;;;;;;;24.87;15.93;;;2.10;99.90;;;;;;5037875;28;20183;-82
2022/04/05 04:36:29;;;;;;;24.57;15.63;;;2.20;99.90;;;;;;5038167;28;20194;-81
2022/04/05 04:38:55;;;;;;;22.33;13.53;;;3.10;99.90;;;;;;5021751;28;20180;-81
2022/04/05 04:41:22;;;;;;;25.67;17.13;;;3.50;99.90;;;;;;5055945;28;20257;-81
2022/04/05 04:43:49;;;;;;;22.97;13.97;;;2.40;99.90;;;;;;5055987;28;20188;-81
2022/04/05 04:46:14;;;;;;;24.37;13.43;;;2.10;99.90;;;;;;5037835;28;20197;-82
2022/04/05 04:48:40;;;;;;;27.53;17.50;;;2.30;99.90;;;;;;5038053;28;20264;-82
2022/04/05 04:51:06;;;;;;;20.10;13.63;;;2.10;99.90;;;;;;5055697;28;20188;-81
2022/04/05 04:53:31;;;;;;;22.80;14.67;;;2.10;99.90;;;;;;5054979;28;20647;-81
2022/04/05 04:55:57;;;;;;;16.87;11.90;;;2.20;99.90;;;;;;5020972;28;20278;-81
2022/04/05 04:58:23;;;;;;;29.83;14.97;;;2.20;99.90;;;;;;5052114;28;20300;-81
2022/04/05 05:00:48;;;;;;;29.00;16.57;;;2.20;99.90;;;;;;5056430;28;20244;-82
2022/04/05 05:03:18;;;;;;;22.63;13.50;;;2.20;99.90;;;;;;5067748;28;20192;-82
2022/04/05 05:05:44;;;;;;;27.10;15.43;;;2.20;99.90;;;;;;5058424;28;20599;-81
2022/04/05 05:08:10;;;;;;;26.77;13.40;;;3.70;99.90;;;;;;5052374;28;20184;-82
2022/04/05 05:10:36;;;;;;;26.27;16.00;;;2.20;99.90;;;;;;5065808;28;20190;-81
2022/04/05 05:13:01;;;;;;;28.00;17.57;;;2.30;99.90;;;;;;5052133;28;20191;-84
2022/04/05 05:15:27;;;;;;;20.77;14.23;;;2.30;99.90;;;;;;5059787;28;20233;-82
2022/04/05 05:17:55;;;;;;;22.13;14.80;;;3.50;99.90;;;;;;5060983;28;20197;-81
2022/04/05 05:20:21;;;;;;;22.27;15.23;;;2.40;99.90;;;;;;5052180;28;20280;-81
2022/04/05 05:22:47;;;;;;;27.13;16.77;;;2.70;99.90;;;;;;5067088;28;20210;-82
2022/04/05 05:25:13;;;;;;;27.60;17.07;;;2.40;99.90;;;;;;5051654;28;20195;-83
2022/04/05 05:27:39;;;;;;;32.73;18.83;;;2.40;99.90;;;;;;5034196;28;20189;-86
2022/04/05 05:30:07;;;;;;;28.03;17.23;;;2.50;99.90;;;;;;5069233;28;20187;-83
2022/04/05 05:32:40;;;;;;;26.07;17.77;;;2.50;99.90;;;;;;5057446;28;20203;-81
2022/04/05 05:35:06;;;;;;;25.97;14.83;;;2.50;99.90;;;;;;5057808;28;20564;-82
2022/04/05 05:37:32;;;;;;;27.27;18.23;;;2.50;99.90;;;;;;5055606;28;20266;-83
2022/04/05 05:39:57;;;;;;;25.20;14.80;;;2.60;99.90;;;;;;5046700;28;20187;-84
2022/04/05 05:42:23;;;;;;;23.47;14.10;;;2.50;99.90;;;;;;5053732;28;21067;-83
2022/04/05 05:44:49;;;;;;;26.23;17.03;;;2.50;99.90;;;;;;5047293;28;20196;-84
2022/04/05 05:47:15;;;;;;;27.43;17.77;;;3.30;99.90;;;;;;5027978;28;20195;-82
2022/04/05 05:49:41;;;;;;;25.57;15.93;;;2.60;99.90;;;;;;5051710;28;20183;-84
2022/04/05 05:52:07;;;;;;;27.63;17.53;;;3.20;99.90;;;;;;5062563;28;20279;-82
2022/04/05 05:54:32;;;;;;;17.73;11.63;;;2.60;99.90;;;;;;5043561;28;20213;-82
2022/04/05 05:56:58;;;;;;;27.67;16.57;;;2.70;99.90;;;;;;5049281;28;20286;-83
2022/04/05 05:59:26;;;;;;;16.43;10.07;;;2.80;99.90;;;;;;5046342;28;20669;-85
2022/04/05 06:01:51;;;;;;;28.10;16.63;;;2.80;99.90;;;;;;5028199;28;20258;-81
2022/04/05 06:04:17;;;;;;;22.37;14.67;;;2.80;99.90;;;;;;5019455;28;20590;-81
2022/04/05 06:06:43;;;;;;;20.50;13.47;;;2.80;99.90;;;;;;5028176;28;20177;-81
2022/04/05 06:09:08;;;;;;;23.23;15.80;;;2.80;99.90;;;;;;5025598;28;20221;-82
2022/04/05 06:11:34;;;;;;;21.03;14.10;;;2.80;99.90;;;;;;5030246;28;20192;-81
2022/04/05 06:14:00;;;;;;;18.27;11.83;;;2.80;99.90;;;;;;5015398;28;20622;-82
2022/04/05 06:16:27;;;;;;;25.07;11.87;;;3.50;99.90;;;;;;5015516;28;20211;-82
2022/04/05 06:18:52;;;;;;;23.37;14.37;;;2.90;99.90;;;;;;5034487;28;20192;-80
2022/04/05 06:21:22;;;;;;;20.70;13.97;;;2.90;99.90;;;;;;5007791;28;20219;-83
2022/04/05 06:23:47;;;;;;;23.53;15.93;;;2.90;99.90;;;;;;5043375;28;20778;-80
2022/04/05 06:26:13;;;;;;;26.10;15.20;;;2.90;99.90;;;;;;5030326;28;20196;-82
2022/04/05 06:28:39;;;;;;;26.73;16.70;;;2.90;99.90;;;;;;5043013;28;20187;-82
2022/04/05 06:31:05;;;;;;;27.03;18.03;;;2.90;99.90;;;;;;5013723;28;20190;-82
2022/04/05 06:33:31;;;;;;;21.17;14.47;;;3.40;99.90;;;;;;5028027;28;20184;-81
2022/04/05 06:35:58;;;;;;;19.80;13.07;;;3.00;99.90;;;;;;5023906;28;20177;-81
2022/04/05 06:38:24;;;;;;;23.83;15.63;;;2.90;99.90;;;;;;5029912;28;20665;-81
2022/04/05 06:40:50;;;;;;;24.67;16.10;;;;;;;;;;5021869;28;20236;-81
2022/04/05 06:43:20;;;;;;;25.67;15.77;;;2.90;99.90;;;;;;5029422;28;20735;-81
2022/04/05 06:45:46;;;;;;;19.47;12.53;;;2.90;99.90;;;;;;5044531;28;20176;-81
2022/04/05 06:48:12;;;;;;;20.97;13.43;;;2.90;99.90;;;;;;5014847;28;20550;-87
2022/04/05 06:50:38;;;;;;;24.57;15.83;;;4.30;99.90;;;;;;5047958;28;20182;-83
2022/04/05 06:53:06;;;;;;;25.50;16.20;;;3.00;99.90;;;;;;5019088;28;20191;-81
2022/04/05 06:55:32;;;;;;;24.63;15.23;;;3.00;99.90;;;;;;5049501;28;20196;-81
2022/04/05 06:57:57;;;;;;;32.87;15.13;;;3.00;99.90;;;;;;5047047;28;20314;-80
2022/04/05 07:00:25;;;;;;;24.50;15.40;;;3.10;99.90;;;;;;5015196;28;20200;-84
2022/04/05 07:02:52;;;;;;;25.43;17.90;;;3.00;99.90;;;;;;5010478;28;20324;-82
2022/04/05 07:05:18;;;;;;;25.63;16.30;;;3.10;99.90;;;;;;5016812;28;20191;-82
2022/04/05 07:07:44;;;;;;;21.27;14.07;;;3.10;99.90;;;;;;5025654;28;20185;-84
2022/04/05 07:10:14;;;;;;;29.30;16.60;;;3.10;99.90;;;;;;5007727;28;20187;-81
2022/04/05 07:12:41;;;;;;;21.63;15.20;;;3.20;99.90;;;;;;5028726;28;20538;-81
2022/04/05 07:15:09;;;;;;;25.00;15.90;;;4.50;99.90;;;;;;5028445;28;20243;-83
2022/04/05 07:17:34;;;;;;;23.93;16.07;;;3.20;99.90;;;;;;5010944;28;20184;-82
2022/04/05 07:20:00;;;;;;;27.37;16.93;;;3.30;99.90;;;;;;5019461;28;20630;-81
2022/04/05 07:22:26;;;;;;;26.67;17.03;;;3.50;99.90;;;;;;5037685;28;20297;-82
2022/04/05 07:24:52;;;;;;;16.93;11.73;;;3.40;99.90;;;;;;5008616;28;20730;-83
2022/04/05 07:27:18;;;;;;;30.73;19.40;;;3.40;99.90;;;;;;5029966;28;20182;-80
2022/04/05 07:29:43;;;;;;;24.33;16.67;;;3.50;99.90;;;;;;4987621;28;20253;-81
2022/04/05 07:32:09;;;;;;;22.13;13.23;;;3.50;99.90;;;;;;4997461;28;20184;-81
2022/04/05 07:34:35;;;;;;;26.37;16.83;;;3.60;99.90;;;;;;5032634;28;20289;-81
2022/04/05 07:37:00;;;;;;;29.17;18.23;;;3.60;99.90;;;;;;5035150;28;20181;-81
2022/04/05 07:39:27;;;;;;;21.53;13.70;;;3.60;99.90;;;;;;4987515;28;20186;-82
2022/04/05 07:41:53;;;;;;;23.33;15.00;;;3.60;99.90;;;;;;5033432;28;20775;-82
2022/04/05 07:44:19;;;;;;;27.07;16.23;;;3.60;99.90;;;;;;5030772;28;20190;-82
2022/04/05 07:46:45;;;;;;;23.00;16.67;;;4.40;99.90;;;;;;5043109;28;20617;-82
2022/04/05 07:49:11;;;;;;;24.60;15.80;;;3.70;99.90;;;;;;5043582;28;20198;-85
2022/04/05 07:51:37;;;;;;;29.00;17.47;;;3.80;99.90;;;;;;5056011;28;20273;-86
2022/04/05 07:54:04;;;;;;;20.40;14.47;;;3.80;99.90;;;;;;5053092;28;20302;-81
2022/04/05 07:56:30;;;;;;;22.07;14.83;;;3.90;99.90;;;;;;5077400;28;20197;-81
2022/04/05 07:58:56;;;;;;;21.20;15.73;;;3.90;99.90;;;;;;5066130;28;20589;-80
2022/04/05 08:01:21;;;;;;;20.53;14.87;;;3.90;99.90;;;;;;5055927;28;20237;-81
2022/04/05 08:03:47;;;;;;;25.43;16.73;;;3.90;99.90;;;;;;5064912;28;20176;-81
2022/04/05 08:06:13;;;;;;;24.40;15.67;;;;;;;;;;5076761;28;20199;-80
2022/04/05 08:08:39;;;;;;;25.73;14.70;;;3.90;99.90;;;;;;5077195;28;20173;-82
2022/04/05 08:11:04;;;;;;;17.80;11.60;;;3.90;99.90;;;;;;5059637;28;20187;-81
2022/04/05 08:13:30;;;;;;;18.80;11.33;;;3.90;99.90;;;;;;5036148;28;20215;-80
2022/04/05 08:15:56;;;;;;;22.13;15.50;;;3.90;99.90;;;;;;5053266;28;20177;-81
2022/04/05 08:18:22;;;;;;;23.80;14.80;;;3.90;99.90;;;;;;5034436;28;20325;-85
2022/04/05 08:20:48;;;;;;;14.30;8.93;;;3.90;99.90;;;;;;5034439;28;20194;-80
2022/04/05 08:23:13;;;;;;;23.07;16.73;;;4.00;99.90;;;;;;5034941;28;20177;-80
2022/04/05 08:25:40;;;;;;;23.77;14.30;;;3.90;99.90;;;;;;5052386;28;20635;-80
2022/04/05 08:28:06;;;;;;;20.27;13.77;;;3.90;99.90;;;;;;5038110;28;20169;-80
2022/04/05 08:30:32;;;;;;;19.70;13.00;;;3.90;99.90;;;;;;5038116;28;20684;-80
2022/04/05 08:32:58;;;;;;;21.30;16.03;;;3.90;99.90;;;;;;5038418;28;20215;-80
2022/04/05 08:35:24;;;;;;;22.53;14.30;;;4.00;99.90;;;;;;5056179;28;20508;-84
2022/04/05 08:37:54;;;;;;;19.73;11.80;;;4.40;99.90;;;;;;5056259;28;20226;-80
2022/04/05 08:40:23;;;;;;;19.60;12.47;;;4.00;99.90;;;;;;5056067;28;20172;-80
2022/04/05 08:42:51;;;;;;;17.40;11.27;;;4.00;99.90;;;;;;5037822;28;20199;-81
2022/04/05 08:45:19;;;;;;;20.00;13.20;;;4.00;99.90;;;;;;5055956;28;20182;-80
2022/04/05 08:47:50;;;;;;;19.13;13.17;;;4.10;99.90;;;;;;5056027;28;20528;-80
2022/04/05 08:50:24;;;;;;;16.87;12.33;;;4.00;99.90;;;;;;5038542;28;20197;-80
2022/04/05 08:52:50;;;;;;;18.97;12.27;;;4.00;99.90;;;;;;5038412;28;20192;-80
2022/04/05 08:55:17;;;;;;;20.87;13.80;;;4.00;99.90;;;;;;5021904;28;20172;-80
2022/04/05 08:57:44;;;;;;;22.37;13.60;;;4.10;99.90;;;;;;5026392;28;20238;-80
2022/04/05 09:00:12;;;;;;;18.97;12.73;;;4.10;99.90;;;;;;5076804;28;20174;-80
2022/04/05 09:02:38;;;;;;;18.07;13.03;;;4.10;99.90;;;;;;5074611;28;20551;-81
2022/04/05 09:05:05;;;;;;;17.07;12.93;;;4.00;99.90;;;;;;5075171;28;20284;-81
2022/04/05 09:07:32;;;;;;;17.77;11.97;;;4.10;99.90;;;;;;5058681;28;20186;-81
2022/04/05 09:10:13;;;;;;;18.53;13.33;;;4.20;99.90;;;;;;5058210;28;20184;-81
2022/04/05 09:12:44;;;;;;;17.00;10.70;;;4.20;99.90;;;;;;5073582;28;20548;-81
2022/04/05 09:15:23;;;;;;;12.63;9.13;;;4.80;99.90;;;;;;5069394;28;20198;-81
2022/04/05 09:17:50;;;;;;;17.97;12.07;;;4.30;99.90;;;;;;5076014;28;20281;-81
2022/04/05 09:20:19;;;;;;;18.13;10.97;;;4.30;99.90;;;;;;5075849;28;20205;-81
2022/04/05 09:22:44;;;;;;;11.63;7.70;;;4.40;99.90;;;;;;5075610;28;20209;-81
2022/04/05 09:25:12;;;;;;;14.13;11.83;;;4.40;99.90;;;;;;5072155;28;20198;-80
2022/04/05 09:27:45;;;;;;;12.70;9.60;;;4.40;99.90;;;;;;5070067;28;20658;-80
2022/04/05 09:30:12;;;;;;;13.60;9.70;;;4.50;99.90;;;;;;5074079;28;20195;-80
2022/04/05 09:32:43;;;;;;;19.17;10.83;;;4.60;99.90;;;;;;5056399;28;20542;-81
2022/04/05 09:35:10;;;;;;;14.97;10.67;;;4.50;99.90;;;;;;5056345;28;20168;-81
2022/04/05 09:37:39;;;;;;;13.10;8.80;;;4.60;99.90;;;;;;5055817;28;20245;-82
2022/04/05 09:40:35;;;;;;;14.20;9.37;;;4.50;99.90;;;;;;5054828;28;20182;-81
2022/04/05 09:43:09;;;;;;;12.33;9.10;;;4.50;99.90;;;;;;5057884;28;20184;-82
2022/04/05 09:45:46;;;;;;;19.47;11.27;;;4.60;99.90;;;;;;5060723;28;20182;-80
2022/04/05 09:48:13;;;;;;;14.97;9.73;;;4.60;99.90;;;;;;5072004;28;20178;-80
2022/04/05 09:50:59;;;;;;;15.53;9.87;;;4.60;99.90;;;;;;5039305;28;20589;-80
2022/04/05 09:53:44;;;;;;;12.43;9.03;;;4.60;99.90;;;;;;5071832;28;20240;-80
2022/04/05 09:56:22;;;;;;;15.47;8.17;;;4.60;99.90;;;;;;5070531;28;20650;-80
2022/04/05 09:58:49;;;;;;;13.30;9.40;;;4.60;99.90;;;;;;5060866;28;20237;-81
2022/04/05 10:01:17;;;;;;;15.07;10.47;;;4.50;99.90;;;;;;5060876;28;20213;-80
2022/04/05 10:03:56;;;;;;;17.03;12.03;;;4.50;99.90;;;;;;5054394;28;20214;-81
2022/04/05 10:06:22;;;;;;;16.33;11.37;;;4.50;99.90;;;;;;5055578;28;20561;-80
2022/04/05 10:08:48;;;;;;;14.67;10.47;;;4.50;99.90;;;;;;5038031;28;20297;-80
2022/04/05 10:11:15;;;;;;;19.17;11.00;;;4.70;99.90;;;;;;5054840;28;20707;-80
2022/04/05 10:13:41;;;;;;;12.70;8.83;;;4.70;99.90;;;;;;5038382;28;20180;-80
2022/04/05 10:16:10;;;;;;;13.00;9.07;;;4.70;99.90;;;;;;5056605;28;20180;-80
2022/04/05 10:18:37;;;;;;;15.00;10.70;;;4.70;99.90;;;;;;5055604;28;20176;-80
2022/04/05 10:21:06;;;;;;;15.97;9.50;;;4.90;99.90;;;;;;5038452;28;20242;-80
2022/04/05 10:23:32;;;;;;;12.23;8.67;;;5.00;99.90;;;;;;5034607;28;20190;-80
2022/04/05 10:25:59;;;;;;;11.67;7.97;;;5.20;99.90;;;;;;5038673;28;20179;-80
2022/04/05 10:28:31;;;;;;;13.30;9.67;;;5.30;99.90;;;;;;5037197;28;20191;-80
2022/04/05 10:31:20;;;;;;;16.20;9.37;;;5.40;99.90;;;;;;5055823;28;20184;-79
2022/04/05 10:34:04;;;;;;;10.00;6.03;;;5.40;99.90;;;;;;5056650;28;20185;-81
2022/04/05 10:36:32;;;;;;;17.23;9.97;;;5.50;99.90;;;;;;5054378;28;20163;-79
2022/04/05 10:39:18;;;;;;;13.83;8.10;;;5.60;99.90;;;;;;5053405;28;20682;-78
2022/04/05 10:42:12;;;;;;;15.80;9.37;;;5.70;99.90;;;;;;5059006;28;20215;-81
2022/04/05 10:44:52;;;;;;;10.27;6.63;;;5.70;99.90;;;;;;5054239;28;20187;-80
2022/04/05 10:47:18;;;;;;;14.40;8.07;;;5.80;99.90;;;;;;5055838;28;20584;-79
2022/04/05 10:49:47;;;;;;;12.37;8.17;;;5.80;99.90;;;;;;5054562;28;20194;-79
2022/04/05 10:52:27;;;;;;;9.60;7.83;;;5.80;99.90;;;;;;5055658;28;20175;-80
2022/04/05 10:55:05;;;;;;;10.33;7.30;;;5.80;99.90;;;;;;5038539;28;20701;-79
2022/04/05 10:57:34;;;;;;;8.70;6.67;;;5.80;99.90;;;;;;5058730;28;20201;-80
2022/04/05 11:00:22;;;;;;;10.73;6.80;;;5.70;99.90;;;;;;5056182;28;20166;-81
2022/04/05 11:02:51;;;;;;;8.20;5.97;;;5.60;99.90;;;;;;5039715;28;20211;-81
2022/04/05 11:05:18;;;;;;;9.53;7.23;;;5.50;99.90;;;;;;5037537;28;20192;-81
2022/04/05 11:07:59;;;;;;;13.60;7.50;;;5.50;99.90;;;;;;5055611;28;20179;-79
2022/04/05 11:10:44;;;;;;;9.40;6.60;;;5.50;99.90;;;;;;5051670;28;20184;-80
2022/04/05 11:13:13;;;;;;;9.83;6.83;;;5.40;99.90;;;;;;5031175;28;20200;-81
2022/04/05 11:15:43;;;;;;;9.93;6.83;;;5.50;99.90;;;;;;5027839;28;20226;-80
2022/04/05 11:18:23;;;;;;;17.40;8.63;;;5.50;99.90;;;;;;5021560;28;20184;-80
2022/04/05 11:20:54;;;;;;;14.80;9.53;;;5.40;99.90;;;;;;5019855;28;20266;-79
2022/04/05 11:23:36;;;;;;;14.83;9.93;;;5.40;99.90;;;;;;5020743;28;20667;-80
2022/04/05 11:26:25;;;;;;;11.33;7.27;;;5.40;99.90;;;;;;5019864;28;20180;-80
2022/04/05 11:28:51;;;;;;;23.57;14.33;;;5.40;99.90;;;;;;5019970;28;20187;-80
2022/04/05 11:31:29;;;;;;;25.97;13.83;;;5.40;99.90;;;;;;5017535;28;20275;-80
2022/04/05 11:33:54;;;;;;;17.97;8.43;;;5.50;99.90;;;;;;5033942;28;20196;-81
2022/04/05 11:36:23;;;;;;;26.10;16.43;;;5.70;99.90;;;;;;5035772;28;20184;-81
2022/04/05 11:38:58;;;;;;;20.37;13.47;;;5.80;99.90;;;;;;5015701;28;20274;-82
2022/04/05 11:41:29;;;;;;;20.00;11.50;;;5.80;99.90;;;;;;5003918;28;20617;-81
2022/04/05 11:43:56;;;;;;;19.30;12.70;;;5.80;99.90;;;;;;5036128;28;20188;-80
2022/04/05 11:46:30;;;;;;;15.67;10.87;;;5.80;99.90;;;;;;5034164;28;20189;-80
2022/04/05 11:49:01;;;;;;;19.93;11.70;;;5.90;99.90;;;;;;5029957;28;20176;-80
2022/04/05 11:51:32;;;;;;;150.27;64.83;;;6.10;99.90;;;;;;5026450;28;20199;-80
2022/04/05 11:54:08;;;;;;;215.07;76.30;;;6.20;99.90;;;;;;5035360;28;20172;-79
2022/04/05 11:56:34;;;;;;;61.47;34.00;;;6.40;99.90;;;;;;5036511;28;20248;-80
2022/04/05 11:59:02;;;;;;;32.20;21.40;;;6.40;99.90;;;;;;5050449;28;20223;-81
2022/04/05 12:01:30;;;;;;;66.83;34.80;;;6.40;99.90;;;;;;5053496;28;20214;-80
2022/04/05 12:04:04;;;;;;;54.10;29.67;;;6.60;99.90;;;;;;5056276;28;20698;-81
2022/04/05 12:06:33;;;;;;;46.37;24.13;;;6.60;99.90;;;;;;5057914;28;20170;-79
2022/04/05 12:09:02;;;;;;;62.93;29.67;;;6.70;99.90;;;;;;5057879;28;20179;-79
2022/04/05 12:11:30;;;;;;;35.77;18.03;;;6.90;99.90;;;;;;5055845;28;20179;-80
2022/04/05 12:13:59;;;;;;;10.73;6.90;;;7.20;99.90;;;;;;5055507;28;20204;-82
2022/04/05 12:16:27;;;;;;;40.87;19.80;;;7.40;99.90;;;;;;5065665;28;20276;-80
2022/04/05 12:18:54;;;;;;;23.50;11.87;;;7.60;99.90;;;;;;5066724;28;20258;-80
2022/04/05 12:21:22;;;;;;;17.93;9.27;;;7.60;99.90;;;;;;5068700;28;20195;-78
2022/04/05 12:23:49;;;;;;;12.43;6.53;;;7.50;99.90;;;;;;5077477;28;20184;-80
2022/04/05 12:26:21;;;;;;;15.73;9.93;;;7.20;99.90;;;;;;5075615;28;20187;-80
2022/04/05 12:28:55;;;;;;;7.53;4.77;;;7.10;99.90;;;;;;5077913;28;20170;-79
2022/04/05 12:31:23;;;;;;;11.07;6.80;;;7.00;99.90;;;;;;5077136;28;20218;-79
2022/04/05 12:34:10;;;;;;;19.40;10.70;;;6.90;99.90;;;;;;5075823;28;20546;-79
2022/04/05 12:36:59;;;;;;;18.23;9.07;;;6.90;99.90;;;;;;5078531;28;20190;-79
2022/04/05 12:39:55;;;;;;;14.97;8.40;;;6.90;99.90;;;;;;5076640;28;20182;-81
2022/04/05 12:42:21;;;;;;;7.10;4.70;;;6.70;99.90;;;;;;5057336;28;20299;-80
2022/04/05 12:44:55;;;;;;;4.13;3.03;;;6.60;99.90;;;;;;5056641;28;20184;-80
2022/04/05 12:47:24;;;;;;;5.10;4.50;;;6.40;99.90;;;;;;5057268;28;20175;-80